sensor_id;sensor_type;location;lat;lon;timestamp;pressure;altitude;pressure_sealevel;temperature;humidity
13765;BME280;6953;48.810;9.204;2023-04-24T00:00:33;97702.94;;;13.58;97.05
13765;BME280;6953;48.810;9.204;2023-04-24T00:02:58;97706.47;;;13.68;96.83
13765;BME280;6953;48.810;9.204;2023-04-24T00:05:24;97703.50;;;13.73;95.81
13765;BME280;6953;48.810;9.204;2023-04-24T00:07:50;97704.97;;;13.55;95.31
13765;BME280;6953;48.810;9.204;2023-04-24T00:10:18;97681.13;;;13.46;94.66
13765;BME280;6953;48.810;9.204;2023-04-24T00:12:43;97445.25;;;12.26;94.40
13765;BME280;6953;48.810;9.204;2023-04-24T00:15:09;97498.53;;;12.49;93.80
13765;BME280;6953;48.810;9.204;2023-04-24T00:17:35;97659.69;;;13.50;92.79
13765;BME280;6953;48.810;9.204;2023-04-24T00:20:00;97576.34;;;13.07;92.42
13765;BME280;6953;48.810;9.204;2023-04-24T00:22:27;97593.50;;;13.33;91.52
13765;BME280;6953;48.810;9.204;2023-04-24T00:24:53;97708.06;;;14.02;91.35
13765;BME280;6953;48.810;9.204;2023-04-24T00:27:19;97713.91;;;14.06;91.15
13765;BME280;6953;48.810;9.204;2023-04-24T00:29:44;97732.81;;;14.22;90.74
13765;BME280;6953;48.810;9.204;2023-04-24T00:32:10;97735.94;;;14.27;90.05
13765;BME280;6953;48.810;9.204;2023-04-24T00:34:35;97375.81;;;12.17;89.25
13765;BME280;6953;48.810;9.204;2023-04-24T00:37:01;97498.72;;;12.90;88.97
13765;BME280;6953;48.810;9.204;2023-04-24T00:39:26;97734.31;;;14.35;88.53
13765;BME280;6953;48.810;9.204;2023-04-24T00:41:52;97622.09;;;13.79;88.24
13765;BME280;6953;48.810;9.204;2023-04-24T00:44:18;97702.34;;;14.29;88.23
13765;BME280;6953;48.810;9.204;2023-04-24T00:46:43;97713.34;;;14.34;87.65
13765;BME280;6953;48.810;9.204;2023-04-24T00:49:08;97756.47;;;14.44;87.85
13765;BME280;6953;48.810;9.204;2023-04-24T00:51:34;97465.44;;;12.89;87.00
13765;BME280;6953;48.810;9.204;2023-04-24T00:54:00;97736.47;;;14.41;87.20
13765;BME280;6953;48.810;9.204;2023-04-24T00:56:26;97516.53;;;13.29;87.07
13765;BME280;6953;48.810;9.204;2023-04-24T00:58:52;97741.66;;;14.52;86.60
13765;BME280;6953;48.810;9.204;2023-04-24T01:01:21;97723.78;;;14.56;86.93
13765;BME280;6953;48.810;9.204;2023-04-24T01:03:47;97565.25;;;13.66;86.42
13765;BME280;6953;48.810;9.204;2023-04-24T01:06:14;97708.22;;;14.53;86.28
13765;BME280;6953;48.810;9.204;2023-04-24T01:08:41;97623.78;;;14.01;86.30
13765;BME280;6953;48.810;9.204;2023-04-24T01:11:06;97693.13;;;14.44;86.35
13765;BME280;6953;48.810;9.204;2023-04-24T01:13:32;97704.09;;;14.39;86.56
13765;BME280;6953;48.810;9.204;2023-04-24T01:15:58;97452.97;;;13.02;86.25
13765;BME280;6953;48.810;9.204;2023-04-24T01:18:24;97688.47;;;14.47;86.47
13765;BME280;6953;48.810;9.204;2023-04-24T01:20:51;97688.16;;;14.50;86.47
13765;BME280;6953;48.810;9.204;2023-04-24T01:23:18;97723.09;;;14.54;86.41
13765;BME280;6953;48.810;9.204;2023-04-24T01:25:44;97715.91;;;14.45;86.16
13765;BME280;6953;48.810;9.204;2023-04-24T01:28:09;97711.94;;;14.50;86.30
13765;BME280;6953;48.810;9.204;2023-04-24T01:30:35;97713.50;;;14.53;86.45
13765;BME280;6953;48.810;9.204;2023-04-24T01:33:01;97674.47;;;14.36;86.76
13765;BME280;6953;48.810;9.204;2023-04-24T01:35:26;97698.81;;;14.39;86.74
13765;BME280;6953;48.810;9.204;2023-04-24T01:37:51;97665.72;;;14.15;86.90
13765;BME280;6953;48.810;9.204;2023-04-24T01:40:17;97684.03;;;14.16;87.68
13765;BME280;6953;48.810;9.204;2023-04-24T01:42:42;97692.34;;;14.01;88.13
13765;BME280;6953;48.810;9.204;2023-04-24T01:45:10;97490.31;;;12.96;88.41
13765;BME280;6953;48.810;9.204;2023-04-24T01:47:36;97681.56;;;14.04;89.21
13765;BME280;6953;48.810;9.204;2023-04-24T01:50:02;97687.06;;;14.01;90.06
13765;BME280;6953;48.810;9.204;2023-04-24T01:52:28;97593.84;;;13.39;89.76
13765;BME280;6953;48.810;9.204;2023-04-24T01:54:56;97660.88;;;13.88;89.64
13765;BME280;6953;48.810;9.204;2023-04-24T01:57:24;97698.41;;;13.92;90.54
13765;BME280;6953;48.810;9.204;2023-04-24T01:59:51;97488.81;;;12.72;90.74
13765;BME280;6953;48.810;9.204;2023-04-24T02:02:16;97573.13;;;13.14;91.55
13765;BME280;6953;48.810;9.204;2023-04-24T02:04:42;97683.81;;;13.77;91.89
13765;BME280;6953;48.810;9.204;2023-04-24T02:07:07;97505.44;;;12.72;92.11
13765;BME280;6953;48.810;9.204;2023-04-24T02:09:33;97722.19;;;13.70;92.44
13765;BME280;6953;48.810;9.204;2023-04-24T02:11:58;97728.66;;;13.66;92.46
13765;BME280;6953;48.810;9.204;2023-04-24T02:14:23;97687.59;;;13.63;92.95
13765;BME280;6953;48.810;9.204;2023-04-24T02:16:49;97687.09;;;13.58;93.52
13765;BME280;6953;48.810;9.204;2023-04-24T02:19:14;97681.41;;;13.43;93.44
13765;BME280;6953;48.810;9.204;2023-04-24T02:21:40;97477.38;;;12.40;93.21
13765;BME280;6953;48.810;9.204;2023-04-24T02:24:05;97680.63;;;13.62;93.98
13765;BME280;6953;48.810;9.204;2023-04-24T02:26:31;97677.38;;;13.70;93.39
13765;BME280;6953;48.810;9.204;2023-04-24T02:28:57;97679.50;;;13.76;93.58
13765;BME280;6953;48.810;9.204;2023-04-24T02:31:22;97709.47;;;13.75;93.43
13765;BME280;6953;48.810;9.204;2023-04-24T02:33:48;97684.66;;;13.77;92.89
13765;BME280;6953;48.810;9.204;2023-04-24T02:36:14;97687.53;;;13.85;92.83
13765;BME280;6953;48.810;9.204;2023-04-24T02:38:40;97705.44;;;13.91;93.20
13765;BME280;6953;48.810;9.204;2023-04-24T02:41:05;97528.50;;;12.91;92.52
13765;BME280;6953;48.810;9.204;2023-04-24T02:43:32;97658.69;;;13.62;92.50
13765;BME280;6953;48.810;9.204;2023-04-24T02:45:58;97707.91;;;13.72;93.64
13765;BME280;6953;48.810;9.204;2023-04-24T02:48:23;97583.31;;;12.75;95.58
13765;BME280;6953;48.810;9.204;2023-04-24T02:50:49;97610.09;;;12.69;98.70
13765;BME280;6953;48.810;9.204;2023-04-24T02:53:16;97635.22;;;12.62;100.00
13765;BME280;6953;48.810;9.204;2023-04-24T02:55:41;97642.63;;;12.57;100.00
13765;BME280;6953;48.810;9.204;2023-04-24T02:58:07;97687.75;;;12.85;100.00
13765;BME280;6953;48.810;9.204;2023-04-24T03:00:32;97685.72;;;12.89;100.00
13765;BME280;6953;48.810;9.204;2023-04-24T03:02:57;97720.75;;;12.78;100.00
13765;BME280;6953;48.810;9.204;2023-04-24T03:05:23;97491.25;;;11.42;100.00
13765;BME280;6953;48.810;9.204;2023-04-24T03:07:48;97691.31;;;12.62;100.00
13765;BME280;6953;48.810;9.204;2023-04-24T03:10:13;97673.00;;;12.50;100.00
13765;BME280;6953;48.810;9.204;2023-04-24T03:12:39;97681.75;;;12.50;100.00
13765;BME280;6953;48.810;9.204;2023-04-24T03:15:04;97591.97;;;11.99;100.00
13765;BME280;6953;48.810;9.204;2023-04-24T03:17:30;97676.91;;;12.34;100.00
13765;BME280;6953;48.810;9.204;2023-04-24T03:19:55;97580.53;;;11.65;100.00
13765;BME280;6953;48.810;9.204;2023-04-24T03:22:21;97378.25;;;10.40;100.00
13765;BME280;6953;48.810;9.204;2023-04-24T03:24:46;97671.59;;;12.12;100.00
13765;BME280;6953;48.810;9.204;2023-04-24T03:27:11;97663.06;;;11.97;100.00
13765;BME280;6953;48.810;9.204;2023-04-24T03:29:37;97631.81;;;11.71;100.00
13765;BME280;6953;48.810;9.204;2023-04-24T03:32:02;97501.41;;;10.89;100.00
13765;BME280;6953;48.810;9.204;2023-04-24T03:34:27;97701.03;;;11.93;100.00
13765;BME280;6953;48.810;9.204;2023-04-24T03:36:53;97666.59;;;11.85;100.00
13765;BME280;6953;48.810;9.204;2023-04-24T03:39:18;97691.13;;;11.97;100.00
13765;BME280;6953;48.810;9.204;2023-04-24T03:41:44;97669.16;;;11.98;100.00
13765;BME280;6953;48.810;9.204;2023-04-24T03:44:09;97399.00;;;10.43;100.00
13765;BME280;6953;48.810;9.204;2023-04-24T03:46:34;97379.09;;;10.18;100.00
13765;BME280;6953;48.810;9.204;2023-04-24T03:49:00;97661.56;;;11.82;100.00
13765;BME280;6953;48.810;9.204;2023-04-24T03:51:25;97372.69;;;10.22;100.00
13765;BME280;6953;48.810;9.204;2023-04-24T03:53:53;97657.03;;;11.84;100.00
13765;BME280;6953;48.810;9.204;2023-04-24T03:56:18;97666.94;;;11.81;100.00
13765;BME280;6953;48.810;9.204;2023-04-24T03:58:43;97673.72;;;11.72;100.00
13765;BME280;6953;48.810;9.204;2023-04-24T04:01:09;97415.59;;;10.08;100.00
13765;BME280;6953;48.810;9.204;2023-04-24T04:03:35;97594.09;;;11.13;100.00
13765;BME280;6953;48.810;9.204;2023-04-24T04:06:00;97667.63;;;11.36;100.00
13765;BME280;6953;48.810;9.204;2023-04-24T04:08:26;97684.19;;;11.61;100.00
13765;BME280;6953;48.810;9.204;2023-04-24T04:10:51;97692.09;;;11.72;100.00
13765;BME280;6953;48.810;9.204;2023-04-24T04:13:17;97686.78;;;11.85;100.00
13765;BME280;6953;48.810;9.204;2023-04-24T04:15:42;97695.34;;;11.99;100.00
13765;BME280;6953;48.810;9.204;2023-04-24T04:18:07;97695.38;;;12.10;100.00
13765;BME280;6953;48.810;9.204;2023-04-24T04:20:33;97730.78;;;12.17;100.00
13765;BME280;6953;48.810;9.204;2023-04-24T04:22:58;97625.47;;;11.73;100.00
13765;BME280;6953;48.810;9.204;2023-04-24T04:25:24;97734.06;;;12.32;100.00
13765;BME280;6953;48.810;9.204;2023-04-24T04:27:49;97699.53;;;12.02;100.00
13765;BME280;6953;48.810;9.204;2023-04-24T04:30:16;97466.97;;;10.46;100.00
13765;BME280;6953;48.810;9.204;2023-04-24T04:32:41;97768.75;;;12.13;100.00
13765;BME280;6953;48.810;9.204;2023-04-24T04:35:07;97691.66;;;11.55;100.00
13765;BME280;6953;48.810;9.204;2023-04-24T04:37:35;97459.03;;;10.23;100.00
13765;BME280;6953;48.810;9.204;2023-04-24T04:40:05;97761.09;;;12.10;100.00
13765;BME280;6953;48.810;9.204;2023-04-24T04:42:35;97795.00;;;12.02;100.00
13765;BME280;6953;48.810;9.204;2023-04-24T04:45:01;97680.53;;;11.39;100.00
13765;BME280;6953;48.810;9.204;2023-04-24T04:47:27;97781.34;;;11.97;100.00
13765;BME280;6953;48.810;9.204;2023-04-24T04:49:54;97779.69;;;11.96;100.00
13765;BME280;6953;48.810;9.204;2023-04-24T04:52:20;97329.31;;;9.09;100.00
13765;BME280;6953;48.810;9.204;2023-04-24T04:54:45;97794.88;;;11.80;100.00
13765;BME280;6953;48.810;9.204;2023-04-24T04:57:11;97690.28;;;11.14;100.00
13765;BME280;6953;48.810;9.204;2023-04-24T04:59:37;97786.38;;;11.64;100.00
13765;BME280;6953;48.810;9.204;2023-04-24T05:02:02;97806.16;;;11.70;100.00
13765;BME280;6953;48.810;9.204;2023-04-24T05:04:29;97801.72;;;11.70;100.00
13765;BME280;6953;48.810;9.204;2023-04-24T05:06:55;97482.88;;;9.83;100.00
13765;BME280;6953;48.810;9.204;2023-04-24T05:09:21;97812.34;;;11.69;100.00
13765;BME280;6953;48.810;9.204;2023-04-24T05:11:46;97732.91;;;11.05;100.00
13765;BME280;6953;48.810;9.204;2023-04-24T05:14:12;97832.66;;;11.54;100.00
13765;BME280;6953;48.810;9.204;2023-04-24T05:16:38;97841.38;;;11.55;100.00
13765;BME280;6953;48.810;9.204;2023-04-24T05:19:03;97572.41;;;10.02;100.00
13765;BME280;6953;48.810;9.204;2023-04-24T05:21:29;97838.53;;;11.58;100.00
13765;BME280;6953;48.810;9.204;2023-04-24T05:23:54;97828.53;;;11.50;100.00
13765;BME280;6953;48.810;9.204;2023-04-24T05:26:19;97848.94;;;11.59;100.00
13765;BME280;6953;48.810;9.204;2023-04-24T05:28:45;97847.88;;;11.62;100.00
13765;BME280;6953;48.810;9.204;2023-04-24T05:31:10;97852.94;;;11.65;100.00
13765;BME280;6953;48.810;9.204;2023-04-24T05:33:37;97860.06;;;11.63;100.00
13765;BME280;6953;48.810;9.204;2023-04-24T05:36:02;97579.09;;;10.06;100.00
13765;BME280;6953;48.810;9.204;2023-04-24T05:38:28;97858.59;;;11.71;100.00
13765;BME280;6953;48.810;9.204;2023-04-24T05:40:54;97866.25;;;11.87;100.00
13765;BME280;6953;48.810;9.204;2023-04-24T05:43:20;97875.69;;;11.89;100.00
13765;BME280;6953;48.810;9.204;2023-04-24T05:45:45;97870.00;;;11.95;100.00
13765;BME280;6953;48.810;9.204;2023-04-24T05:48:11;97875.78;;;12.00;100.00
13765;BME280;6953;48.810;9.204;2023-04-24T05:50:36;97888.03;;;12.12;100.00
13765;BME280;6953;48.810;9.204;2023-04-24T05:53:01;97667.97;;;10.96;100.00
13765;BME280;6953;48.810;9.204;2023-04-24T05:55:27;97623.03;;;10.88;100.00
13765;BME280;6953;48.810;9.204;2023-04-24T05:57:52;97306.59;;;9.09;99.45
13765;BME280;6953;48.810;9.204;2023-04-24T06:00:18;97897.69;;;12.71;99.39
13765;BME280;6953;48.810;9.204;2023-04-24T06:02:45;97906.00;;;12.88;98.56
13765;BME280;6953;48.810;9.204;2023-04-24T06:05:10;97621.09;;;11.38;96.50
13765;BME280;6953;48.810;9.204;2023-04-24T06:07:36;97898.47;;;13.18;96.00
13765;BME280;6953;48.810;9.204;2023-04-24T06:10:01;97604.03;;;11.43;94.47
13765;BME280;6953;48.810;9.204;2023-04-24T06:12:26;97936.28;;;13.17;94.14
13765;BME280;6953;48.810;9.204;2023-04-24T06:14:52;97826.16;;;12.77;94.11
13765;BME280;6953;48.810;9.204;2023-04-24T06:17:18;97558.84;;;11.28;93.77
13765;BME280;6953;48.810;9.204;2023-04-24T06:19:43;97664.19;;;11.82;91.79
13765;BME280;6953;48.810;9.204;2023-04-24T06:22:08;97754.81;;;13.25;90.54
13765;BME280;6953;48.810;9.204;2023-04-24T06:24:34;97888.41;;;15.38;80.81
13765;BME280;6953;48.810;9.204;2023-04-24T06:27:00;97879.56;;;16.47;76.57
13765;BME280;6953;48.810;9.204;2023-04-24T06:29:26;97890.19;;;18.33;66.84
13765;BME280;6953;48.810;9.204;2023-04-24T06:31:52;97882.63;;;19.60;61.08
13765;BME280;6953;48.810;9.204;2023-04-24T06:34:17;97792.75;;;19.88;57.25
13765;BME280;6953;48.810;9.204;2023-04-24T06:36:42;97889.78;;;21.57;52.66
13765;BME280;6953;48.810;9.204;2023-04-24T06:39:08;97820.06;;;20.80;53.72
13765;BME280;6953;48.810;9.204;2023-04-24T06:41:34;97869.91;;;20.80;54.46
13765;BME280;6953;48.810;9.204;2023-04-24T06:44:00;97911.94;;;21.01;52.70
13765;BME280;6953;48.810;9.204;2023-04-24T06:46:25;97838.25;;;21.64;48.67
13765;BME280;6953;48.810;9.204;2023-04-24T06:48:53;97741.28;;;22.02;45.69
13765;BME280;6953;48.810;9.204;2023-04-24T06:51:25;97820.22;;;22.81;43.75
13765;BME280;6953;48.810;9.204;2023-04-24T06:53:54;97902.44;;;23.17;43.37
13765;BME280;6953;48.810;9.204;2023-04-24T06:56:21;97692.50;;;22.38;42.54
13765;BME280;6953;48.810;9.204;2023-04-24T06:58:46;97892.28;;;23.72;40.87
13765;BME280;6953;48.810;9.204;2023-04-24T07:01:12;97884.03;;;24.68;38.47
13765;BME280;6953;48.810;9.204;2023-04-24T07:03:37;97902.19;;;25.02;37.25
13765;BME280;6953;48.810;9.204;2023-04-24T07:06:03;97775.94;;;24.95;35.45
13765;BME280;6953;48.810;9.204;2023-04-24T07:08:29;97906.59;;;25.65;34.84
13765;BME280;6953;48.810;9.204;2023-04-24T07:10:56;97923.56;;;23.80;36.29
13765;BME280;6953;48.810;9.204;2023-04-24T07:13:23;97913.09;;;22.02;41.45
13765;BME280;6953;48.810;9.204;2023-04-24T07:15:48;97901.47;;;20.59;46.20
13765;BME280;6953;48.810;9.204;2023-04-24T07:18:16;97799.31;;;19.17;49.15
13765;BME280;6953;48.810;9.204;2023-04-24T07:20:42;97848.16;;;18.46;52.98
13765;BME280;6953;48.810;9.204;2023-04-24T07:23:07;97651.16;;;16.45;56.27
13765;BME280;6953;48.810;9.204;2023-04-24T07:25:32;97830.38;;;17.11;58.40
13765;BME280;6953;48.810;9.204;2023-04-24T07:27:58;97686.09;;;15.92;57.74
13765;BME280;6953;48.810;9.204;2023-04-24T07:30:24;97938.63;;;16.96;56.95
13765;BME280;6953;48.810;9.204;2023-04-24T07:32:49;97916.28;;;16.80;56.63
13765;BME280;6953;48.810;9.204;2023-04-24T07:35:15;97699.91;;;15.37;56.35
13765;BME280;6953;48.810;9.204;2023-04-24T07:37:41;97737.72;;;15.67;54.58
13765;BME280;6953;48.810;9.204;2023-04-24T07:40:13;97941.97;;;16.98;53.91
13765;BME280;6953;48.810;9.204;2023-04-24T07:42:39;97697.09;;;15.87;52.32
13765;BME280;6953;48.810;9.204;2023-04-24T07:45:05;97810.44;;;18.43;47.21
13765;BME280;6953;48.810;9.204;2023-04-24T07:47:31;97756.47;;;19.20;42.53
13765;BME280;6953;48.810;9.204;2023-04-24T07:49:57;97890.81;;;21.40;38.35
13765;BME280;6953;48.810;9.204;2023-04-24T07:52:23;97969.06;;;22.04;37.19
13765;BME280;6953;48.810;9.204;2023-04-24T07:54:48;97928.25;;;22.80;32.84
13765;BME280;6953;48.810;9.204;2023-04-24T07:57:15;97910.13;;;21.42;35.21
13765;BME280;6953;48.810;9.204;2023-04-24T07:59:41;97826.41;;;21.35;33.10
13765;BME280;6953;48.810;9.204;2023-04-24T08:02:06;97990.06;;;22.23;33.24
13765;BME280;6953;48.810;9.204;2023-04-24T08:04:32;97979.84;;;22.58;32.27
13765;BME280;6953;48.810;9.204;2023-04-24T08:06:57;97986.56;;;22.22;31.59
13765;BME280;6953;48.810;9.204;2023-04-24T08:09:22;98001.28;;;20.56;34.68
13765;BME280;6953;48.810;9.204;2023-04-24T08:11:48;97986.34;;;19.52;38.17
13765;BME280;6953;48.810;9.204;2023-04-24T08:14:13;97979.03;;;19.37;39.01
13765;BME280;6953;48.810;9.204;2023-04-24T08:16:40;97983.31;;;19.90;37.46
13765;BME280;6953;48.810;9.204;2023-04-24T08:19:05;98001.25;;;20.82;35.76
13765;BME280;6953;48.810;9.204;2023-04-24T08:21:31;97954.06;;;21.63;33.79
13765;BME280;6953;48.810;9.204;2023-04-24T08:23:57;98013.13;;;22.48;31.85
13765;BME280;6953;48.810;9.204;2023-04-24T08:26:22;98003.81;;;23.20;30.35
13765;BME280;6953;48.810;9.204;2023-04-24T08:28:47;97997.97;;;23.70;29.05
13765;BME280;6953;48.810;9.204;2023-04-24T08:31:13;98035.03;;;24.48;28.17
13765;BME280;6953;48.810;9.204;2023-04-24T08:33:38;97987.84;;;24.82;27.57
13765;BME280;6953;48.810;9.204;2023-04-24T08:36:06;97940.06;;;24.92;25.91
13765;BME280;6953;48.810;9.204;2023-04-24T08:38:32;98022.69;;;25.40;26.37
13765;BME280;6953;48.810;9.204;2023-04-24T08:40:59;98060.50;;;25.74;25.35
13765;BME280;6953;48.810;9.204;2023-04-24T08:43:26;97844.06;;;24.59;25.55
13765;BME280;6953;48.810;9.204;2023-04-24T08:45:52;98048.94;;;24.95;26.99
13765;BME280;6953;48.810;9.204;2023-04-24T08:48:21;98038.22;;;22.85;29.78
13765;BME280;6953;48.810;9.204;2023-04-24T08:50:48;97968.88;;;20.43;33.15
13765;BME280;6953;48.810;9.204;2023-04-24T08:53:15;98026.75;;;19.65;36.51
13765;BME280;6953;48.810;9.204;2023-04-24T08:55:41;97979.19;;;19.18;37.59
13765;BME280;6953;48.810;9.204;2023-04-24T08:58:09;97990.69;;;18.91;38.22
13765;BME280;6953;48.810;9.204;2023-04-24T09:00:34;98031.53;;;18.90;39.74
13765;BME280;6953;48.810;9.204;2023-04-24T09:03:00;98046.03;;;18.42;43.23
13765;BME280;6953;48.810;9.204;2023-04-24T09:05:27;98019.59;;;18.50;43.78
13765;BME280;6953;48.810;9.204;2023-04-24T09:07:56;98021.06;;;18.62;44.07
13765;BME280;6953;48.810;9.204;2023-04-24T09:10:24;97847.34;;;17.37;43.86
13765;BME280;6953;48.810;9.204;2023-04-24T09:12:51;97979.25;;;17.44;45.16
13765;BME280;6953;48.810;9.204;2023-04-24T09:15:18;97767.78;;;15.66;46.90
13765;BME280;6953;48.810;9.204;2023-04-24T09:17:43;98078.38;;;16.65;48.76
13765;BME280;6953;48.810;9.204;2023-04-24T09:20:10;97973.56;;;15.82;51.90
13765;BME280;6953;48.810;9.204;2023-04-24T09:22:36;98078.88;;;15.36;56.96
13765;BME280;6953;48.810;9.204;2023-04-24T09:25:03;98048.59;;;14.54;61.88
13765;BME280;6953;48.810;9.204;2023-04-24T09:27:31;98039.59;;;14.13;63.74
13765;BME280;6953;48.810;9.204;2023-04-24T09:29:58;98079.44;;;13.97;65.76
13765;BME280;6953;48.810;9.204;2023-04-24T09:32:24;98001.59;;;13.25;68.05
13765;BME280;6953;48.810;9.204;2023-04-24T09:35:14;98080.31;;;13.40;70.01
13765;BME280;6953;48.810;9.204;2023-04-24T09:37:43;98079.22;;;13.55;69.29
13765;BME280;6953;48.810;9.204;2023-04-24T09:42:38;98051.97;;;14.67;64.01
13765;BME280;6953;48.810;9.204;2023-04-24T09:45:08;98070.81;;;16.51;57.01
13765;BME280;6953;48.810;9.204;2023-04-24T09:47:37;98082.13;;;20.90;42.70
13765;BME280;6953;48.810;9.204;2023-04-24T09:50:13;98091.25;;;22.82;35.50
13765;BME280;6953;48.810;9.204;2023-04-24T09:52:41;97905.47;;;21.52;36.00
13765;BME280;6953;48.810;9.204;2023-04-24T09:55:27;98090.75;;;21.67;37.65
13765;BME280;6953;48.810;9.204;2023-04-24T09:57:58;98034.00;;;20.74;39.11
13765;BME280;6953;48.810;9.204;2023-04-24T10:00:34;97923.34;;;21.75;34.18
13765;BME280;6953;48.810;9.204;2023-04-24T10:03:01;98103.34;;;22.22;33.02
13765;BME280;6953;48.810;9.204;2023-04-24T10:05:37;97918.78;;;20.13;35.83
13765;BME280;6953;48.810;9.204;2023-04-24T10:08:08;98101.16;;;20.95;35.47
13765;BME280;6953;48.810;9.204;2023-04-24T10:10:43;97859.06;;;20.32;33.36
13765;BME280;6953;48.810;9.204;2023-04-24T10:13:10;98005.38;;;20.76;33.72
13765;BME280;6953;48.810;9.204;2023-04-24T10:15:37;97929.03;;;21.64;31.87
13765;BME280;6953;48.810;9.204;2023-04-24T10:18:04;98129.09;;;24.46;27.50
13765;BME280;6953;48.810;9.204;2023-04-24T10:20:31;98149.31;;;26.78;24.81
13765;BME280;6953;48.810;9.204;2023-04-24T10:22:58;98168.63;;;27.37;22.34
13765;BME280;6953;48.810;9.204;2023-04-24T10:25:31;98083.13;;;28.50;21.70
13765;BME280;6953;48.810;9.204;2023-04-24T10:27:59;98176.03;;;29.07;20.43
13765;BME280;6953;48.810;9.204;2023-04-24T10:30:26;98187.53;;;29.79;20.11
13765;BME280;6953;48.810;9.204;2023-04-24T10:32:52;98197.16;;;29.75;19.62
13765;BME280;6953;48.810;9.204;2023-04-24T10:35:18;98209.88;;;26.89;22.51
13765;BME280;6953;48.810;9.204;2023-04-24T10:37:55;97955.06;;;22.95;24.74
13765;BME280;6953;48.810;9.204;2023-04-24T10:40:30;98069.25;;;21.68;27.93
13765;BME280;6953;48.810;9.204;2023-04-24T10:42:56;97975.91;;;19.76;31.13
13765;BME280;6953;48.810;9.204;2023-04-24T10:45:23;98061.44;;;19.29;32.92
13765;BME280;6953;48.810;9.204;2023-04-24T10:50:18;98033.78;;;18.13;35.77
13765;BME280;6953;48.810;9.204;2023-04-24T10:52:44;98109.97;;;18.31;37.11
13765;BME280;6953;48.810;9.204;2023-04-24T10:55:12;98103.06;;;18.38;37.65
13765;BME280;6953;48.810;9.204;2023-04-24T10:57:38;98138.59;;;18.37;37.67
13765;BME280;6953;48.810;9.204;2023-04-24T11:00:14;98120.97;;;18.17;37.82
13765;BME280;6953;48.810;9.204;2023-04-24T11:02:40;98069.03;;;17.77;38.63
13765;BME280;6953;48.810;9.204;2023-04-24T11:05:14;98073.06;;;18.09;38.25
13765;BME280;6953;48.810;9.204;2023-04-24T11:08:15;98120.72;;;18.30;39.48
13765;BME280;6953;48.810;9.204;2023-04-24T11:10:45;98120.84;;;18.19;39.21
13765;BME280;6953;48.810;9.204;2023-04-24T11:13:14;98139.28;;;18.01;40.18
13765;BME280;6953;48.810;9.204;2023-04-24T11:15:41;97976.06;;;16.73;41.18
13765;BME280;6953;48.810;9.204;2023-04-24T11:18:13;97921.53;;;16.22;41.93
13765;BME280;6953;48.810;9.204;2023-04-24T11:20:42;98133.66;;;17.38;42.29
13765;BME280;6953;48.810;9.204;2023-04-24T11:23:07;98163.13;;;17.54;41.40
13765;BME280;6953;48.810;9.204;2023-04-24T11:25:35;98144.59;;;17.73;40.70
13765;BME280;6953;48.810;9.204;2023-04-24T11:28:05;98097.25;;;17.59;39.99
13765;BME280;6953;48.810;9.204;2023-04-24T11:30:31;98125.31;;;18.37;38.51
13765;BME280;6953;48.810;9.204;2023-04-24T11:33:03;98151.78;;;19.21;35.82
13765;BME280;6953;48.810;9.204;2023-04-24T11:35:29;98165.25;;;19.90;35.02
13765;BME280;6953;48.810;9.204;2023-04-24T11:37:55;98083.16;;;19.69;34.26
13765;BME280;6953;48.810;9.204;2023-04-24T11:40:22;98153.72;;;20.17;34.46
13765;BME280;6953;48.810;9.204;2023-04-24T11:42:50;98175.28;;;20.49;34.13
13765;BME280;6953;48.810;9.204;2023-04-24T11:45:25;98015.16;;;19.39;33.72
13765;BME280;6953;48.810;9.204;2023-04-24T11:47:51;97966.38;;;18.33;35.20
13765;BME280;6953;48.810;9.204;2023-04-24T11:50:18;97923.53;;;17.44;37.37
13765;BME280;6953;48.810;9.204;2023-04-24T11:52:45;98172.59;;;18.24;39.75
13765;BME280;6953;48.810;9.204;2023-04-24T11:57:39;98150.97;;;16.53;49.00
13765;BME280;6953;48.810;9.204;2023-04-24T12:00:14;98181.31;;;16.69;49.52
13765;BME280;6953;48.810;9.204;2023-04-24T12:02:40;97909.78;;;16.35;45.24
13765;BME280;6953;48.810;9.204;2023-04-24T12:05:05;98177.06;;;19.34;40.08
13765;BME280;6953;48.810;9.204;2023-04-24T12:07:40;98190.72;;;20.20;36.20
13765;BME280;6953;48.810;9.204;2023-04-24T12:10:08;98139.44;;;20.43;35.01
13765;BME280;6953;48.810;9.204;2023-04-24T12:12:34;98202.69;;;20.76;34.81
13765;BME280;6953;48.810;9.204;2023-04-24T12:15:01;98224.81;;;20.69;34.66
13765;BME280;6953;48.810;9.204;2023-04-24T12:17:33;98109.50;;;19.45;36.18
13765;BME280;6953;48.810;9.204;2023-04-24T12:20:08;97980.53;;;17.50;38.46
13765;BME280;6953;48.810;9.204;2023-04-24T12:22:50;98181.22;;;18.17;40.63
13765;BME280;6953;48.810;9.204;2023-04-24T12:25:17;98159.25;;;17.58;42.45
13765;BME280;6953;48.810;9.204;2023-04-24T12:27:45;98174.84;;;17.42;44.05
13765;BME280;6953;48.810;9.204;2023-04-24T12:30:13;98179.47;;;17.20;44.47
13765;BME280;6953;48.810;9.204;2023-04-24T12:32:47;98180.09;;;17.33;44.06
13765;BME280;6953;48.810;9.204;2023-04-24T12:35:14;97943.75;;;16.00;43.85
13765;BME280;6953;48.810;9.204;2023-04-24T12:37:43;98186.16;;;17.54;43.31
13765;BME280;6953;48.810;9.204;2023-04-24T12:40:10;98179.13;;;17.43;43.70
13765;BME280;6953;48.810;9.204;2023-04-24T12:42:52;98122.75;;;16.72;43.97
13765;BME280;6953;48.810;9.204;2023-04-24T12:45:18;98165.19;;;17.11;44.42
13765;BME280;6953;48.810;9.204;2023-04-24T12:47:45;97866.66;;;15.55;43.65
13765;BME280;6953;48.810;9.204;2023-04-24T12:50:13;98185.63;;;17.60;42.60
13765;BME280;6953;48.810;9.204;2023-04-24T12:52:39;98139.44;;;17.23;43.01
13765;BME280;6953;48.810;9.204;2023-04-24T12:55:06;98185.53;;;17.31;43.34
13765;BME280;6953;48.810;9.204;2023-04-24T12:57:33;98204.47;;;16.97;44.55
13765;BME280;6953;48.810;9.204;2023-04-24T13:00:00;98155.34;;;16.43;45.95
13765;BME280;6953;48.810;9.204;2023-04-24T13:02:30;98192.16;;;15.83;52.13
13765;BME280;6953;48.810;9.204;2023-04-24T13:04:57;98203.97;;;14.37;61.65
13765;BME280;6953;48.810;9.204;2023-04-24T13:07:23;98215.59;;;13.64;69.53
13765;BME280;6953;48.810;9.204;2023-04-24T13:09:50;98209.94;;;13.22;74.47
13765;BME280;6953;48.810;9.204;2023-04-24T13:12:16;97896.75;;;11.64;75.42